Time;durP1;ratioP1;P1;durP2;ratioP2;P2;SDS_P1;SDS_P2;PMS_P1;PMS_P2;Temp;Humidity;BMP_temperature;BMP_pressure;BME280_temperature;BME280_humidity;BME280_pressure;Samples;Min_cycle;Max_cycle;Signal;HPM_P1;HPM_P2
2022/06/09 00:00:15;;;;;;;19.80;13.83;;;;;;;17.62;61.76;99973.70;1715509;81;27997;-68
2022/06/09 00:02:47;;;;;;;20.68;14.68;;;;;;;17.59;61.92;99977.16;1716604;81;99007;-65
2022/06/09 00:05:14;;;;;;;20.40;14.55;;;;;;;17.56;62.01;99985.55;1715900;81;27540;-65
2022/06/09 00:07:42;;;;;;;17.30;13.53;;;;;;;17.51;62.16;99983.22;1720173;81;26620;-65
2022/06/09 00:10:13;;;;;;;18.32;14.43;;;;;;;17.48;62.26;99976.70;1761700;79;98632;-66
2022/06/09 00:12:41;;;;;;;;;;;;;;;17.45;62.46;99979.66;1757441;79;26283;-65
2022/06/09 00:15:13;;;;;;;16.50;13.90;;;;;;;17.45;62.87;99979.66;1752459;79;83903;-65
2022/06/09 00:17:42;;;;;;;16.07;13.98;;;;;;;17.41;62.67;99980.41;1760836;79;27395;-67
2022/06/09 00:20:12;;;;;;;20.68;14.05;;;;;;;17.38;62.77;99982.50;1755229;79;99152;-67
2022/06/09 00:22:39;;;;;;;16.25;13.43;;;;;;;17.34;62.94;99979.19;1765117;79;25829;-65
2022/06/09 00:25:08;;;;;;;18.77;14.80;;;;;;;17.33;63.17;99982.88;1755629;79;26560;-65
2022/06/09 00:27:35;;;;;;;20.05;15.32;;;;;;;17.31;63.25;99983.50;1753942;79;98950;-65
2022/06/09 00:30:04;;;;;;;21.73;15.68;;;;;;;17.28;63.45;99982.89;1760540;79;28505;-66
2022/06/09 00:32:30;;;;;;;21.33;15.53;;;;;;;17.24;63.54;99986.83;1763148;79;99874;-65
2022/06/09 00:34:58;;;;;;;24.05;16.00;;;;;;;17.23;63.71;99983.76;1760844;79;25884;-65
2022/06/09 00:37:25;;;;;;;19.85;15.38;;;;;;;17.20;63.77;99982.16;1694476;83;25784;-68
2022/06/09 00:39:54;;;;;;;20.82;16.67;;;;;;;17.17;63.93;99981.91;1714436;81;98908;-66
2022/06/09 00:42:20;;;;;;;23.07;16.82;;;;;;;17.15;64.11;99978.47;1682137;83;28058;-65
2022/06/09 00:44:47;;;;;;;20.32;15.98;;;;;;;17.13;64.19;99975.52;1715727;81;99274;-66
2022/06/09 00:47:27;;;;;;;23.77;16.52;;;;;;;17.10;64.38;99973.92;1714235;81;26736;-65
2022/06/09 00:50:07;;;;;;;22.27;17.67;;;;;;;17.08;64.56;99970.47;1722249;81;99053;-62
2022/06/09 00:52:37;;;;;;;21.70;16.57;;;;;;;17.06;64.56;99969.73;1716834;82;25799;-65
2022/06/09 00:55:09;;;;;;;26.27;16.50;;;;;;;17.02;64.69;99969.62;1757558;79;27391;-65
2022/06/09 00:57:43;;;;;;;24.57;17.40;;;;;;;17.01;64.97;99969.73;1753874;79;99005;-67
2022/06/09 01:00:16;;;;;;;23.02;17.50;;;;;;;17.00;65.05;99968.88;1759841;79;26497;-66
2022/06/09 01:02:44;;;;;;;24.23;16.35;;;;;;;16.95;65.08;99967.03;1723293;81;98921;-66
2022/06/09 01:05:15;;;;;;;28.70;17.23;;;;;;;16.87;65.17;99969.00;1712267;82;26545;-66
2022/06/09 01:07:46;;;;;;;22.95;17.05;;;;;;;16.79;65.36;99975.52;1708624;82;27448;-67
2022/06/09 01:10:14;;;;;;;21.42;16.05;;;;;;;16.74;65.55;99966.91;1758983;79;98627;-66
2022/06/09 01:12:44;;;;;;;25.57;16.50;;;;;;;16.70;65.67;99974.03;1758751;79;26524;-67
2022/06/09 01:15:19;;;;;;;24.35;17.37;;;;;;;16.50;65.98;99951.23;1758697;79;98836;-66
2022/06/09 01:18:13;;;;;;;24.30;17.70;;;;;;;16.50;65.98;99951.23;1759711;79;25767;-67
2022/06/09 01:21:14;;;;;;;23.12;18.73;;;;;;;16.61;66.23;99965.27;1754872;79;98858;-67
2022/06/09 01:24:20;;;;;;;25.12;19.05;;;;;;;16.59;66.43;99970.80;1755385;79;25736;-66
2022/06/09 01:26:56;;;;;;;29.27;18.67;;;;;;;16.58;66.51;99961.45;1760524;79;98939;-66
2022/06/09 01:29:42;;;;;;;23.27;18.50;;;;;;;16.55;66.65;99960.70;1722929;81;26444;-66
2022/06/09 01:32:27;;;;;;;26.62;19.30;;;;;;;16.55;66.81;99958.49;1716224;81;99339;-66
2022/06/09 01:35:25;;;;;;;23.92;17.98;;;;;;;16.55;66.99;99962.06;1758254;79;28298;-66
2022/06/09 01:37:57;;;;;;;27.37;18.17;;;;;;;16.56;67.11;99955.66;1758999;79;26458;-66
2022/06/09 01:40:24;;;;;;;23.20;18.05;;;;;;;16.54;67.14;99953.57;1752839;79;98548;-67
2022/06/09 01:42:57;;;;;;;28.52;18.98;;;;;;;16.51;67.30;99955.16;1723383;81;27891;-65
2022/06/09 01:45:40;;;;;;;32.75;18.85;;;;;;;16.50;67.41;99945.33;1724077;81;98811;-66
2022/06/09 01:48:14;;;;;;;25.70;19.60;;;;;;;16.48;67.46;99945.94;1721996;81;29118;-66
2022/06/09 01:51:13;;;;;;;29.37;18.73;;;;;;;16.44;67.67;99949.87;1709099;81;99131;-66
2022/06/09 01:53:46;;;;;;;30.82;18.92;;;;;;;16.43;67.75;99944.58;1700339;82;25993;-66
2022/06/09 01:56:18;;;;;;;23.15;18.23;;;;;;;16.40;67.86;99936.70;1697913;82;99148;-66
2022/06/09 01:58:55;;;;;;;23.73;18.37;;;;;;;16.38;68.02;99931.41;1707135;82;26888;-66
2022/06/09 02:01:26;;;;;;;23.47;19.20;;;;;;;16.36;68.06;99929.32;1718162;80;27478;-66
2022/06/09 02:03:57;;;;;;;24.00;18.55;;;;;;;16.33;68.27;99925.51;1737651;80;98959;-65
2022/06/09 02:06:27;;;;;;;25.65;18.30;;;;;;;16.32;68.34;99925.63;1737504;80;25815;-66
2022/06/09 02:08:53;;;;;;;26.33;18.30;;;;;;;16.32;68.42;99924.27;1741594;80;98884;-66
2022/06/09 02:11:19;;;;;;;24.75;19.27;;;;;;;16.29;68.52;99918.61;1739365;80;25250;-65
2022/06/09 02:13:51;;;;;;;23.80;19.17;;;;;;;16.28;68.64;99918.73;1739289;80;29464;-66
2022/06/09 02:16:21;;;;;;;25.72;18.82;;;;;;;16.26;68.74;99915.30;1739663;80;99036;-66
2022/06/09 02:18:53;;;;;;;23.12;17.65;;;;;;;16.24;68.88;99916.27;1739071;80;25730;-66
2022/06/09 02:21:32;;;;;;;24.92;19.45;;;;;;;16.21;68.95;99908.40;1734755;80;98912;-66
2022/06/09 02:24:04;;;;;;;28.73;19.57;;;;;;;16.19;69.05;99914.42;1730364;80;26049;-66
2022/06/09 02:26:30;;;;;;;23.57;17.65;;;;;;;16.13;69.11;99911.33;1738597;80;99060;-66
2022/06/09 02:28:57;;;;;;;25.17;17.75;;;;;;;16.10;69.25;99924.59;1704444;82;26083;-66
2022/06/09 02:31:24;;;;;;;23.92;17.95;;;;;;;16.09;69.39;99912.55;1702312;82;25732;-66
2022/06/09 02:33:54;;;;;;;28.70;18.37;;;;;;;16.09;69.47;99917.95;1696001;82;98915;-66
2022/06/09 02:36:22;;;;;;;22.93;18.57;;;;;;;16.07;69.57;99913.16;1674164;84;25705;-66
2022/06/09 02:38:51;;;;;;;23.67;19.15;;;;;;;16.05;69.69;99917.83;1670945;84;98831;-66
2022/06/09 02:41:22;;;;;;;27.00;19.60;;;;;;;16.03;69.80;99919.30;1701913;82;53682;-66
2022/06/09 02:43:48;;;;;;;24.15;18.73;;;;;;;16.00;69.93;99916.83;1695598;82;25743;-66
2022/06/09 02:46:15;;;;;;;24.18;18.05;;;;;;;16.01;69.99;99914.98;1695107;82;98742;-66
2022/06/09 02:48:43;;;;;;;30.17;21.20;;;;;;;15.99;70.11;99918.30;1695640;82;28481;-66
2022/06/09 02:51:26;;;;;;;25.85;19.05;;;;;;;15.98;70.24;99913.88;1696508;81;98909;-65
2022/06/09 02:53:57;;;;;;;25.37;18.95;;;;;;;16.01;70.40;99913.64;1746854;80;25753;-65
2022/06/09 02:56:25;;;;;;;26.75;19.55;;;;;;;16.00;70.35;99918.18;1747378;80;98998;-66
2022/06/09 02:58:52;;;;;;;23.70;18.20;;;;;;;15.99;70.43;99926.41;1747728;80;25717;-66
2022/06/09 03:01:21;;;;;;;28.23;19.62;;;;;;;15.96;70.53;99926.64;1751572;80;25784;-66
2022/06/09 03:03:48;;;;;;;25.05;18.07;;;;;;;15.96;70.67;99917.19;1748997;80;98983;-65
2022/06/09 03:06:15;;;;;;;28.05;20.23;;;;;;;15.91;70.64;99915.70;1709803;81;25724;-66
2022/06/09 03:08:45;;;;;;;26.52;19.87;;;;;;;15.89;70.90;99914.95;1747539;80;99389;-66
2022/06/09 03:11:12;;;;;;;26.07;20.00;;;;;;;15.88;70.87;99913.23;1752368;80;25782;-66
2022/06/09 03:13:43;;;;;;;24.37;18.00;;;;;;;15.89;71.14;99913.60;1752428;80;25624;-65
2022/06/09 03:16:13;;;;;;;29.80;20.55;;;;;;;15.91;71.17;99922.45;1754732;80;98904;-66
2022/06/09 03:18:40;;;;;;;27.17;19.25;;;;;;;15.90;71.22;99924.78;1750893;80;25836;-66
2022/06/09 03:21:07;;;;;;;33.30;20.10;;;;;;;15.90;71.36;99924.78;1754521;80;98911;-66
2022/06/09 03:23:35;;;;;;;29.37;19.05;;;;;;;15.91;71.39;99924.30;1750810;80;27872;-66
2022/06/09 03:26:01;;;;;;;28.10;20.45;;;;;;;15.90;71.45;99928.84;1750504;80;99154;-66
2022/06/09 03:28:28;;;;;;;29.32;20.15;;;;;;;15.90;71.54;99932.89;1747794;80;27516;-66
2022/06/09 03:30:55;;;;;;;25.25;18.42;;;;;;;15.91;71.65;99932.41;1750888;80;25801;-66
2022/06/09 03:33:22;;;;;;;25.82;19.65;;;;;;;15.93;71.73;99933.15;1743327;80;98887;-67
2022/06/09 03:35:51;;;;;;;29.67;20.82;;;;;;;15.96;71.87;99938.81;1754563;80;27827;-66
2022/06/09 03:38:16;;;;;;;25.20;19.80;;;;;;;15.98;71.94;99936.84;1752373;80;99037;-66
2022/06/09 03:40:43;;;;;;;27.27;19.35;;;;;;;16.03;72.01;99936.86;1745417;80;27707;-66
2022/06/09 03:43:11;;;;;;;25.45;19.05;;;;;;;16.07;72.09;99941.55;1752052;80;26409;-66
2022/06/09 03:45:41;;;;;;;30.77;20.10;;;;;;;16.10;72.17;99939.95;1748067;80;98892;-67
2022/06/09 03:48:08;;;;;;;31.45;20.57;;;;;;;16.14;72.32;99934.19;1714084;81;25844;-66
2022/06/09 03:50:35;;;;;;;25.27;19.32;;;;;;;16.19;72.29;99939.24;1716624;81;99261;-66
2022/06/09 03:53:02;;;;;;;25.62;18.98;;;;;;;16.23;72.45;99934.83;1750418;80;27504;-66
2022/06/09 03:55:28;;;;;;;27.58;19.85;;;;;;;16.31;72.51;99938.29;1747025;80;25879;-66
2022/06/09 03:57:56;;;;;;;27.02;19.48;;;;;;;16.37;72.59;99942.36;1737554;80;98894;-66
2022/06/09 04:00:29;;;;;;;24.95;18.82;;;;;;;16.43;72.57;99938.67;1751205;80;25789;-66
2022/06/09 04:02:56;;;;;;;33.35;20.35;;;;;;;16.47;72.63;99949.63;1720127;81;98988;-66
2022/06/09 04:05:22;;;;;;;32.88;20.35;;;;;;;16.54;72.75;99948.66;1715194;81;27411;-68
2022/06/09 04:07:49;;;;;;;29.07;18.95;;;;;;;16.59;72.77;99948.28;1714874;81;25778;-66
2022/06/09 04:10:27;;;;;;;24.30;19.15;;;;;;;16.64;72.84;99955.55;1708939;81;98655;-66
2022/06/09 04:12:54;;;;;;;23.83;18.50;;;;;;;16.69;72.81;99960.14;1748298;80;26595;-66
2022/06/09 04:15:21;;;;;;;28.75;19.15;;;;;;;16.73;72.95;99956.20;1723507;80;99099;-66
2022/06/09 04:17:47;;;;;;;28.42;18.90;;;;;;;16.81;72.96;99957.80;1712400;81;25756;-65
2022/06/09 04:20:20;;;;;;;26.73;17.80;;;;;;;16.84;72.94;99961.62;1722688;81;99001;-65
2022/06/09 04:22:46;;;;;;;28.80;18.45;;;;;;;16.90;72.96;99960.27;1715190;81;25756;-66
2022/06/09 04:25:15;;;;;;;31.12;20.23;;;;;;;16.92;73.03;99968.63;1709632;81;26250;-66
2022/06/09 04:27:43;;;;;;;25.90;18.62;;;;;;;16.95;73.14;99967.03;1747883;80;98891;-66
2022/06/09 04:30:12;;;;;;;31.77;18.12;;;;;;;17.04;73.15;99970.35;1750328;80;27378;-66
2022/06/09 04:32:38;;;;;;;22.87;17.35;;;;;;;17.05;73.07;99970.72;1743723;80;99036;-66
2022/06/09 04:35:08;;;;;;;31.75;19.57;;;;;;;17.06;73.14;99973.80;1749158;80;25755;-66
2022/06/09 04:40:20;;;;;;;26.75;19.07;;;;;;;17.20;73.35;99977.60;1722262;81;98701;-66
2022/06/09 04:42:47;;;;;;;27.58;18.25;;;;;;;17.24;73.27;99976.86;1722805;81;29554;-66
2022/06/09 04:45:14;;;;;;;25.37;18.27;;;;;;;17.26;73.27;99978.09;1748659;80;98716;-66
2022/06/09 04:47:41;;;;;;;27.45;19.45;;;;;;;17.31;73.42;99983.99;1748587;80;25747;-66
2022/06/09 04:50:11;;;;;;;25.85;19.65;;;;;;;17.39;73.51;99974.74;1744446;80;99692;-67
2022/06/09 04:52:38;;;;;;;28.77;19.45;;;;;;;17.47;73.56;99981.75;1747071;80;25758;-66
2022/06/09 04:55:09;;;;;;;29.90;19.82;;;;;;;17.56;73.55;99979.63;1747405;80;27494;-66
2022/06/09 04:57:36;;;;;;;28.47;19.05;;;;;;;17.62;73.56;99983.19;1709643;81;98972;-66
2022/06/09 05:00:08;;;;;;;25.82;19.62;;;;;;;17.72;73.75;99983.31;1748298;80;26184;-66
2022/06/09 05:02:38;;;;;;;28.62;19.67;;;;;;;17.84;73.80;99985.86;1748009;80;98994;-66
2022/06/09 05:05:10;;;;;;;29.48;19.60;;;;;;;17.96;73.77;99989.39;1725674;81;25908;-66
2022/06/09 05:07:37;;;;;;;31.20;18.98;;;;;;;18.04;73.82;99988.75;1697084;82;28336;-67
2022/06/09 05:10:03;;;;;;;25.48;18.35;;;;;;;18.14;73.71;99988.33;1712971;81;99212;-66
2022/06/09 05:12:29;;;;;;;30.95;18.40;;;;;;;18.16;73.79;99984.98;1710583;81;25808;-66
2022/06/09 05:14:55;;;;;;;30.10;20.05;;;;;;;18.26;73.74;99987.25;1741336;80;98916;-66
2022/06/09 05:17:22;;;;;;;33.25;20.57;;;;;;;18.35;73.83;99992.38;1746851;80;25771;-66
2022/06/09 05:19:48;;;;;;;33.13;20.55;;;;;;;18.42;73.86;99985.44;1743465;80;27361;-66
2022/06/09 05:22:18;;;;;;;29.05;20.65;;;;;;;18.48;73.74;99985.77;1746831;80;98839;-66
2022/06/09 05:24:46;;;;;;;38.30;21.33;;;;;;;18.53;73.76;99985.36;1748067;80;25816;-66
2022/06/09 05:27:14;;;;;;;33.53;20.35;;;;;;;18.53;73.73;99985.36;1743281;80;98879;-66
2022/06/09 05:29:41;;;;;;;34.25;21.23;;;;;;;18.60;73.84;99988.41;1750801;80;25755;-66
2022/06/09 05:32:08;;;;;;;30.02;20.95;;;;;;;18.64;73.75;99992.61;1746196;80;100083;-65
2022/06/09 05:34:35;;;;;;;30.52;20.95;;;;;;;18.65;73.77;99987.05;1746456;80;26179;-66
2022/06/09 05:37:04;;;;;;;31.73;20.92;;;;;;;18.71;73.81;99996.02;1742609;80;26835;-65
2022/06/09 05:45:07;;;;;;;26.48;19.42;;;;;;;18.90;73.85;99991.19;1718544;81;99095;-66
2022/06/09 05:47:35;;;;;;;36.42;20.40;;;;;;;18.97;73.81;100001.87;1738290;80;26194;-66
2022/06/09 05:50:00;;;;;;;35.25;21.93;;;;;;;19.05;73.89;99999.33;1735597;80;99369;-66
2022/06/09 05:52:29;;;;;;;31.07;19.98;;;;;;;19.12;73.80;99996.43;1732230;81;26525;-67
2022/06/09 05:54:55;;;;;;;26.05;20.40;;;;;;;19.18;73.71;99997.74;1738251;80;25874;-66
2022/06/09 05:57:23;;;;;;;32.15;22.40;;;;;;;19.23;73.78;99992.75;1734880;80;99353;-66
2022/06/09 05:59:51;;;;;;;27.10;20.02;;;;;;;19.30;73.80;100001.22;1739865;80;25805;-67
2022/06/09 06:02:21;;;;;;;28.83;20.62;;;;;;;19.36;73.72;100001.53;1725221;81;99297;-66
2022/06/09 06:04:49;;;;;;;33.58;19.60;;;;;;;19.44;73.65;100000.83;1731103;81;25773;-67
2022/06/09 06:07:16;;;;;;;29.42;20.48;;;;;;;19.49;73.69;99994.98;1729166;81;26468;-66
2022/06/09 06:09:46;;;;;;;30.50;19.65;;;;;;;19.57;73.68;99997.40;1732695;80;98912;-67
2022/06/09 06:12:13;;;;;;;23.42;19.20;;;;;;;19.66;73.70;99996.56;1732050;81;26641;-66
2022/06/09 06:14:45;;;;;;;29.57;19.70;;;;;;;19.78;73.64;99998.16;1730947;81;99172;-66
2022/06/09 06:17:17;;;;;;;27.52;18.77;;;;;;;19.84;73.55;99994.52;1729726;81;26477;-65
2022/06/09 06:19:44;;;;;;;31.75;19.85;;;;;;;19.91;73.45;99995.66;1725744;81;25708;-65
2022/06/09 06:22:10;;;;;;;26.80;18.37;;;;;;;19.98;73.47;99996.31;1724003;81;99008;-66
2022/06/09 06:24:38;;;;;;;25.60;18.20;;;;;;;20.05;73.42;99994.74;1727948;81;27087;-66
2022/06/09 06:27:04;;;;;;;27.98;18.65;;;;;;;20.13;73.42;99994.03;1722463;81;98913;-65
2022/06/09 06:29:33;;;;;;;26.42;18.55;;;;;;;20.23;73.35;100003.55;1727422;81;27887;-66
2022/06/09 06:32:02;;;;;;;27.15;19.40;;;;;;;20.28;73.36;100001.26;1724977;81;99317;-64
2022/06/09 06:34:28;;;;;;;22.82;17.30;;;;;;;20.37;73.29;100009.92;1729701;81;27508;-66
2022/06/09 06:36:55;;;;;;;21.77;17.30;;;;;;;20.41;73.14;100008.16;1729427;81;25860;-66
2022/06/09 06:39:22;;;;;;;20.23;17.20;;;;;;;20.48;73.09;100009.80;1723576;81;99013;-67
2022/06/09 06:41:52;;;;;;;27.77;17.87;;;;;;;20.54;72.92;100017.89;1731050;81;26100;-66
2022/06/09 06:44:22;;;;;;;23.77;17.75;;;;;;;20.58;73.07;100016.09;1728595;80;99216;-66
2022/06/09 06:46:50;;;;;;;24.75;16.95;;;;;;;20.69;73.00;100011.84;1719198;81;27581;-67
2022/06/09 06:49:16;;;;;;;25.45;18.45;;;;;;;20.82;72.97;100022.89;1723122;81;25758;-67
2022/06/09 06:51:43;;;;;;;20.95;16.27;;;;;;;20.91;72.86;100014.70;1710022;81;99331;-66
2022/06/09 06:54:11;;;;;;;22.20;17.23;;;;;;;21.02;72.80;100013.16;1719565;81;26595;-67
2022/06/09 06:56:37;;;;;;;25.05;17.95;;;;;;;21.11;72.88;100015.48;1710187;81;99286;-67
2022/06/09 06:59:03;;;;;;;27.85;17.20;;;;;;;21.25;72.70;100022.36;1714925;81;27405;-66
2022/06/09 07:01:34;;;;;;;24.40;16.23;;;;;;;21.37;72.53;100018.42;1716170;81;26564;-65
2022/06/09 07:04:04;;;;;;;23.62;17.30;;;;;;;21.47;72.35;100016.51;1721593;81;99032;-65
2022/06/09 07:06:32;;;;;;;22.02;17.45;;;;;;;21.56;72.05;100019.69;1716702;81;26308;-66
2022/06/09 07:09:01;;;;;;;24.72;16.65;;;;;;;21.41;71.59;100013.02;1720106;81;99081;-65
2022/06/09 07:11:28;;;;;;;21.17;16.35;;;;;;;21.40;71.83;100019.48;1722516;81;27400;-65
2022/06/09 07:13:56;;;;;;;24.02;15.50;;;;;;;21.52;71.86;100025.09;1723206;81;25795;-66
2022/06/09 07:16:24;;;;;;;21.62;16.05;;;;;;;21.60;71.72;100024.34;1720920;81;98746;-66
2022/06/09 07:18:52;;;;;;;24.70;17.02;;;;;;;21.62;71.43;100017.72;1722305;81;27934;-66
2022/06/09 07:21:21;;;;;;;24.80;16.30;;;;;;;21.64;71.33;100020.30;1723114;81;99617;-66
2022/06/09 07:23:47;;;;;;;29.35;16.75;;;;;;;21.67;71.28;100025.44;1721467;81;27441;-66
2022/06/09 07:26:13;;;;;;;25.17;16.70;;;;;;;21.69;71.12;100022.06;1721217;81;99215;-65
2022/06/09 07:28:39;;;;;;;32.48;15.15;;;;;;;21.82;71.07;100021.19;1722909;81;25731;-66
2022/06/09 07:31:06;;;;;;;25.85;15.50;;;;;;;21.89;70.91;100017.34;1720419;81;26446;-65
2022/06/09 07:33:39;;;;;;;19.40;14.78;;;;;;;22.03;70.98;100022.30;1721365;81;99020;-65
2022/06/09 07:36:10;;;;;;;19.02;13.30;;;;;;;22.21;70.82;100020.94;1722022;81;27481;-65
2022/06/09 07:38:37;;;;;;;23.10;14.43;;;;;;;22.40;70.68;100020.77;1720020;81;99205;-65
2022/06/09 07:41:08;;;;;;;23.15;15.18;;;;;;;22.63;70.63;100025.23;1720325;81;25940;-66
2022/06/09 07:43:35;;;;;;;21.27;14.90;;;;;;;22.79;70.48;100015.83;1717219;81;25888;-65
2022/06/09 07:46:05;;;;;;;23.38;15.00;;;;;;;23.08;70.32;100031.05;1719909;81;99127;-66
2022/06/09 07:48:33;;;;;;;26.12;15.68;;;;;;;23.17;69.99;100025.97;1721501;81;26925;-66
2022/06/09 07:51:00;;;;;;;28.23;16.57;;;;;;;23.22;69.59;100031.81;1720395;81;99290;-66
2022/06/09 07:53:30;;;;;;;21.70;15.68;;;;;;;23.24;69.50;100032.50;1723068;81;25764;-66
2022/06/09 07:55:58;;;;;;;29.92;15.55;;;;;;;23.29;69.35;100032.88;1725525;81;25863;-66
2022/06/09 07:58:23;;;;;;;24.10;16.32;;;;;;;23.31;68.93;100037.16;1719921;81;99058;-66
2022/06/09 08:00:49;;;;;;;26.45;14.40;;;;;;;23.22;68.84;100031.81;1722427;81;27526;-65
2022/06/09 08:03:21;;;;;;;24.27;15.10;;;;;;;23.24;68.84;100031.14;1710036;81;99173;-66
2022/06/09 08:05:48;;;;;;;27.62;16.57;;;;;;;23.26;68.58;100031.83;1727191;81;26638;-66
2022/06/09 08:08:16;;;;;;;20.35;15.08;;;;;;;23.24;68.41;100033.87;1713923;81;99237;-66
2022/06/09 08:10:43;;;;;;;17.85;14.25;;;;;;;23.18;68.28;100037.25;1713623;81;25736;-66
2022/06/09 08:13:10;;;;;;;19.65;14.68;;;;;;;23.10;68.10;100033.11;1721051;81;27461;-66
2022/06/09 08:15:39;;;;;;;16.85;14.45;;;;;;;23.05;68.04;100032.22;1723584;81;99509;-65
2022/06/09 08:18:07;;;;;;;25.50;16.27;;;;;;;23.02;67.84;100032.55;1723820;81;26438;-66
2022/06/09 08:20:35;;;;;;;18.15;14.55;;;;;;;22.87;67.68;100039.11;1714453;81;99287;-66
2022/06/09 08:23:04;;;;;;;21.30;16.30;;;;;;;22.67;67.57;100048.48;1720750;81;26237;-67
2022/06/09 08:25:33;;;;;;;23.83;15.48;;;;;;;22.64;67.69;100046.06;1722860;81;28894;-68
2022/06/09 08:27:59;;;;;;;21.07;15.80;;;;;;;22.60;67.63;100047.40;1720956;81;99156;-67
2022/06/09 08:30:25;;;;;;;16.85;15.05;;;;;;;22.49;67.49;100061.30;1716455;81;26435;-67
2022/06/09 08:32:54;;;;;;;17.00;14.60;;;;;;;22.37;67.53;100057.09;1716195;81;98964;-68
2022/06/09 08:35:20;;;;;;;20.55;14.15;;;;;;;22.32;67.55;100064.39;1725000;81;25805;-68
2022/06/09 08:37:50;;;;;;;22.22;14.43;;;;;;;22.22;67.51;100062.23;1723418;81;29552;-66
2022/06/09 08:40:19;;;;;;;20.90;15.25;;;;;;;22.08;67.52;100060.05;1722938;81;99151;-68
2022/06/09 08:43:12;;;;;;;18.17;15.30;;;;;;;22.01;67.87;100062.50;1720459;81;25919;-66
2022/06/09 08:45:42;;;;;;;21.30;15.48;;;;;;;21.91;67.88;100065.28;1721510;81;98424;-67
2022/06/09 08:48:15;;;;;;;19.02;14.23;;;;;;;21.78;68.23;100051.66;1722153;81;25877;-66
2022/06/09 08:51:05;;;;;;;19.17;14.25;;;;;;;21.77;68.02;100066.30;1724034;81;99254;-66
2022/06/09 08:53:44;;;;;;;16.33;14.20;;;;;;;21.58;68.30;100064.53;1722852;81;25715;-67
2022/06/09 08:56:26;;;;;;;16.80;15.00;;;;;;;21.48;68.57;100069.17;1721374;81;99226;-67
2022/06/09 08:59:16;;;;;;;17.67;13.83;;;;;;;21.44;68.79;100068.62;1721145;81;25897;-66
2022/06/09 09:01:59;;;;;;;19.10;14.35;;;;;;;21.43;68.90;100064.17;1723049;81;25706;-67
2022/06/09 09:04:40;;;;;;;16.75;14.47;;;;;;;21.35;68.92;100061.34;1709900;81;98764;-68
2022/06/09 09:07:11;;;;;;;;;;;;;;;21.33;69.32;100068.30;1714195;81;26319;-67
2022/06/09 09:09:40;;;;;;;19.00;15.08;;;;;;;21.27;69.44;100070.77;1721729;81;84113;-67
2022/06/09 09:12:47;;;;;;;17.05;14.58;;;;;;;21.25;69.48;100067.33;1722783;81;26287;-67
2022/06/09 09:15:41;;;;;;;16.30;14.05;;;;;;;21.25;69.59;100073.64;1721705;81;98116;-67
2022/06/09 09:18:24;;;;;;;17.98;14.70;;;;;;;21.26;69.76;100069.91;1720824;81;27402;-67
2022/06/09 09:21:10;;;;;;;15.35;13.28;;;;;;;21.27;69.84;100076.22;1714404;81;99169;-67
2022/06/09 09:24:11;;;;;;;17.50;13.15;;;;;;;21.24;69.77;100073.28;1709938;82;25811;-66
2022/06/09 09:27:06;;;;;;;19.07;13.45;;;;;;;21.18;69.91;100067.53;1720877;81;99683;-66
2022/06/09 09:29:53;;;;;;;17.65;12.15;;;;;;;21.18;70.01;100071.13;1723349;81;25806;-66
2022/06/09 09:32:24;;;;;;;18.77;13.05;;;;;;;21.18;70.11;100069.76;1716358;81;99239;-66
2022/06/09 09:34:52;;;;;;;19.12;12.85;;;;;;;21.23;70.25;100068.84;1722213;81;25763;-66
2022/06/09 09:37:48;;;;;;;15.28;12.43;;;;;;;21.38;70.51;100069.22;1722410;81;26556;-66
2022/06/09 09:40:20;;;;;;;16.25;12.33;;;;;;;;;;1715827;81;99037;-66
2022/06/09 09:42:52;;;;;;;12.20;10.90;;;;;;;21.77;70.50;100077.22;1723802;81;25833;-66
2022/06/09 09:45:37;;;;;;;14.28;11.97;;;;;;;21.90;70.34;100081.81;1723130;81;99128;-67
2022/06/09 09:48:09;;;;;;;15.95;11.70;;;;;;;21.93;70.33;100083.73;1721535;81;25883;-67
2022/06/09 09:50:59;;;;;;;15.38;10.70;;;;;;;21.94;70.13;100087.31;1713906;81;99277;-68
2022/06/09 09:53:32;;;;;;;14.30;11.03;;;;;;;22.01;70.22;100085.19;1721479;81;25775;-67
2022/06/09 09:56:05;;;;;;;14.15;11.65;;;;;;;22.14;70.08;100088.09;1722848;81;25765;-66
2022/06/09 09:58:43;;;;;;;13.65;10.72;;;;;;;22.15;69.89;100085.70;1717764;81;98901;-66
2022/06/09 10:01:25;;;;;;;12.77;9.50;;;;;;;22.24;69.95;100086.14;1727301;81;25764;-66
2022/06/09 10:09:54;;;;;;;9.48;7.80;;;;;;;22.44;69.31;100089.59;1719755;81;97858;-65
2022/06/09 10:12:31;;;;;;;7.67;6.87;;;;;;;22.52;69.20;100091.03;1717508;81;27501;-65
2022/06/09 10:15:07;;;;;;;8.28;7.37;;;;;;;22.71;69.04;100096.84;1717293;81;98795;-65
2022/06/09 10:17:44;;;;;;;9.15;8.23;;;;;;;22.80;68.62;100098.15;1719466;81;26590;-67
2022/06/09 10:20:41;;;;;;;9.75;8.75;;;;;;;22.86;68.44;100083.84;1661516;84;98859;-64
2022/06/09 10:23:26;;;;;;;9.38;8.20;;;;;;;23.03;68.20;100086.70;1675157;84;25831;-65
2022/06/09 10:26:09;;;;;;;12.53;8.55;;;;;;;23.24;68.12;100089.92;1669887;84;27524;-64
2022/06/09 10:28:49;;;;;;;15.38;8.48;;;;;;;23.42;67.85;100090.69;1661807;84;98642;-64
2022/06/09 10:31:44;;;;;;;10.53;8.63;;;;;;;23.58;67.63;100096.79;1671104;84;26552;-65
2022/06/09 10:34:36;;;;;;;17.90;7.50;;;;;;;23.71;67.43;100096.34;1690493;83;98983;-67
2022/06/09 10:37:42;;;;;;;10.23;8.13;;;;;;;23.72;67.06;100093.95;1671626;83;26056;-64
2022/06/09 10:40:45;;;;;;;12.75;7.33;;;;;;;23.71;66.44;100093.09;1670889;83;98918;-66
2022/06/09 10:43:36;;;;;;;10.10;8.05;;;;;;;23.70;66.30;100097.36;1671895;83;25796;-66
2022/06/09 10:46:33;;;;;;;14.50;8.90;;;;;;;23.89;66.29;100099.33;1688901;82;99119;-64
2022/06/09 10:55:41;;;;;;;10.18;8.30;;;;;;;24.15;65.02;100100.61;1711363;81;27503;-66
2022/06/09 10:58:16;;;;;;;10.25;8.95;;;;;;;24.10;64.51;100104.87;1717283;81;98864;-65
2022/06/09 11:00:48;;;;;;;9.13;8.15;;;;;;;24.03;64.20;100100.58;1722740;81;25793;-65
2022/06/09 11:03:26;;;;;;;10.15;9.15;;;;;;;24.07;64.54;100109.31;1723707;81;98784;-65
2022/06/09 11:06:18;;;;;;;11.88;8.53;;;;;;;24.33;64.30;100108.73;1724543;81;25280;-66
2022/06/09 11:08:58;;;;;;;9.70;7.65;;;;;;;24.47;63.87;100108.08;1720167;81;99060;-65
2022/06/09 11:11:52;;;;;;;13.55;8.05;;;;;;;24.46;63.66;100110.98;1712049;81;28424;-65
2022/06/09 11:14:41;;;;;;;10.78;7.37;;;;;;;24.54;63.45;100107.74;1719901;81;99080;-64
2022/06/09 11:17:36;;;;;;;12.03;7.15;;;;;;;24.78;63.57;100107.42;1720715;81;26508;-65
2022/06/09 11:20:41;;;;;;;10.10;7.55;;;;;;;25.15;63.38;100106.92;1720419;81;25836;-64
2022/06/09 11:23:40;;;;;;;12.47;8.65;;;;;;;25.32;62.89;100099.01;1721905;81;27624;-65
2022/06/09 11:26:34;;;;;;;8.95;6.70;;;;;;;25.31;62.14;100099.19;1720701;81;25809;-65
2022/06/09 11:29:22;;;;;;;8.15;7.35;;;;;;;25.14;61.75;100105.21;1718272;81;99239;-64
2022/06/09 11:32:21;;;;;;;8.05;6.53;;;;;;;25.16;61.58;100094.41;1722909;81;26494;-64
2022/06/09 11:35:21;;;;;;;9.80;7.22;;;;;;;25.21;61.36;100100.74;1713848;81;98707;-65
2022/06/09 11:38:04;;;;;;;7.87;5.72;;;;;;;25.18;61.06;100097.83;1722765;81;27422;-65
2022/06/09 11:40:36;;;;;;;6.92;6.25;;;;;;;25.14;59.36;100096.98;1706451;81;98665;-65
2022/06/09 11:43:27;;;;;;;8.03;6.05;;;;;;;25.05;60.28;100089.80;1712435;81;25809;-65
2022/06/09 11:46:14;;;;;;;12.37;7.97;;;;;;;25.07;60.08;100090.48;1722042;81;98798;-65
2022/06/09 11:48:48;;;;;;;11.48;7.50;;;;;;;24.83;59.37;100083.95;1723030;81;25770;-66
2022/06/09 11:51:24;;;;;;;9.13;8.20;;;;;;;24.78;59.70;100090.46;1725052;81;99301;-65
2022/06/09 11:53:57;;;;;;;11.53;7.40;;;;;;;24.89;59.53;100080.52;1732403;81;25854;-65
2022/06/09 11:56:43;;;;;;;10.80;6.75;;;;;;;24.87;59.46;100070.23;1730564;81;25856;-64
2022/06/09 11:59:27;;;;;;;12.47;7.42;;;;;;;24.76;58.89;100076.06;1731496;81;98501;-64
2022/06/09 12:02:18;;;;;;;11.00;7.30;;;;;;;24.61;59.05;100072.30;1720913;81;25807;-64
2022/06/09 12:05:05;;;;;;;7.42;6.70;;;;;;;24.66;59.19;100075.90;1722942;81;98836;-65